createdAt,value
2022-09-29T00:00:38.169Z,549.00
2022-09-29T00:01:38.288Z,547.00
2022-09-29T00:02:38.198Z,544.00
2022-09-29T00:03:38.306Z,546.00
2022-09-29T00:04:38.106Z,546.00
2022-09-29T00:05:38.167Z,545.00
2022-09-29T00:06:38.076Z,543.00
2022-09-29T00:07:38.077Z,544.00
2022-09-29T00:08:38.048Z,543.00
2022-09-29T00:09:38.146Z,540.00
2022-09-29T00:10:38.019Z,544.00
2022-09-29T00:11:38.108Z,541.00
2022-09-29T00:12:37.988Z,543.00
2022-09-29T00:13:38.027Z,543.00
2022-09-29T00:14:37.967Z,543.00
2022-09-29T00:15:38.115Z,542.00
2022-09-29T00:16:37.975Z,541.00
2022-09-29T00:17:37.947Z,544.00
2022-09-29T00:18:37.922Z,543.00
2022-09-29T00:19:37.963Z,544.00
2022-09-29T00:20:37.888Z,545.00
2022-09-29T00:21:38.948Z,543.00
2022-09-29T00:22:37.867Z,542.00
2022-09-29T00:23:37.908Z,544.00
2022-09-29T00:24:37.829Z,544.00
2022-09-29T00:25:37.953Z,541.00
2022-09-29T00:26:37.806Z,542.00
2022-09-29T00:27:37.928Z,542.00
2022-09-29T00:28:37.780Z,542.00
2022-09-29T00:29:37.908Z,542.00
2022-09-29T00:30:37.755Z,543.00
2022-09-29T00:31:38.905Z,540.00
2022-09-29T00:32:37.718Z,541.00
2022-09-29T00:33:37.837Z,543.00
2022-09-29T00:34:37.698Z,538.00
2022-09-29T00:35:37.817Z,540.00
2022-09-29T00:36:37.669Z,541.00
2022-09-29T00:37:37.748Z,537.00
2022-09-29T00:38:37.650Z,535.00
2022-09-29T00:39:37.836Z,534.00
2022-09-29T00:40:37.683Z,533.00
2022-09-29T00:41:37.720Z,530.00
2022-09-29T00:42:37.599Z,530.00
2022-09-29T00:43:37.658Z,532.00
2022-09-29T00:44:37.568Z,531.00
2022-09-29T00:45:37.657Z,533.00
2022-09-29T00:46:37.540Z,533.00
2022-09-29T00:47:37.628Z,533.00
2022-09-29T00:48:37.518Z,538.00
2022-09-29T00:49:37.680Z,539.00
2022-09-29T00:50:37.488Z,538.00
2022-09-29T00:51:40.826Z,540.00
2022-09-29T00:52:37.457Z,541.00
2022-09-29T00:53:37.529Z,540.00
2022-09-29T00:54:37.429Z,540.00
2022-09-29T00:55:37.566Z,540.00
2022-09-29T00:56:37.413Z,539.00
2022-09-29T00:57:37.558Z,537.00
2022-09-29T00:58:37.379Z,539.00
2022-09-29T00:59:37.540Z,542.00
2022-09-29T01:00:37.451Z,545.00
2022-09-29T01:01:37.542Z,546.00
2022-09-29T01:02:37.326Z,543.00
2022-09-29T01:03:37.460Z,546.00
2022-09-29T01:04:37.306Z,545.00
2022-09-29T01:05:37.446Z,546.00
2022-09-29T01:06:37.269Z,549.00
2022-09-29T01:07:37.378Z,551.00
2022-09-29T01:08:37.249Z,548.00
2022-09-29T01:09:37.367Z,546.00
2022-09-29T01:10:37.220Z,545.00
2022-09-29T01:11:37.348Z,544.00
2022-09-29T01:12:37.219Z,544.00
2022-09-29T01:13:37.299Z,544.00
2022-09-29T01:14:37.170Z,540.00
2022-09-29T01:15:37.375Z,545.00
2022-09-29T01:16:37.198Z,542.00
2022-09-29T01:17:37.252Z,541.00
2022-09-29T01:18:37.119Z,542.00
2022-09-29T01:19:38.208Z,545.00
2022-09-29T01:20:37.089Z,544.00
2022-09-29T01:21:37.178Z,547.00
2022-09-29T01:22:37.060Z,546.00
2022-09-29T01:23:37.159Z,546.00
2022-09-29T01:24:37.043Z,546.00
2022-09-29T01:25:37.197Z,549.00
2022-09-29T01:26:37.008Z,551.00
2022-09-29T01:27:37.082Z,550.00
2022-09-29T01:28:36.987Z,552.00
2022-09-29T01:29:37.067Z,549.00
2022-09-29T01:30:36.955Z,549.00
2022-09-29T01:31:37.159Z,547.00
2022-09-29T01:32:36.925Z,546.00
2022-09-29T01:33:37.089Z,547.00
2022-09-29T01:34:36.899Z,546.00
2022-09-29T01:35:37.084Z,543.00
2022-09-29T01:36:36.869Z,545.00
2022-09-29T01:37:37.930Z,546.00
2022-09-29T01:38:36.858Z,549.00
2022-09-29T01:39:36.999Z,545.00
2022-09-29T01:40:36.845Z,547.00
2022-09-29T01:41:36.978Z,546.00
2022-09-29T01:42:36.789Z,544.00
2022-09-29T01:43:37.939Z,542.00
2022-09-29T01:44:36.769Z,538.00
2022-09-29T01:45:36.930Z,540.00
2022-09-29T01:46:36.747Z,541.00
2022-09-29T01:47:36.790Z,547.00
2022-09-29T01:48:36.718Z,545.00
2022-09-29T01:49:36.818Z,546.00
2022-09-29T01:50:36.689Z,548.00
2022-09-29T01:51:36.807Z,545.00
2022-09-29T01:52:36.659Z,549.00
2022-09-29T01:53:36.790Z,547.00
2022-09-29T01:54:36.639Z,543.00
2022-09-29T01:55:37.749Z,543.00
2022-09-29T01:56:36.606Z,545.00
2022-09-29T01:57:36.726Z,546.00
2022-09-29T01:58:36.579Z,548.00
2022-09-29T01:59:36.700Z,547.00
2022-09-29T02:00:37.060Z,546.00
2022-09-29T02:01:36.730Z,548.00
2022-09-29T02:02:36.529Z,549.00
2022-09-29T02:03:36.721Z,550.00
2022-09-29T02:04:36.507Z,551.00
2022-09-29T02:05:36.601Z,552.00
2022-09-29T02:06:36.479Z,551.00
2022-09-29T02:07:36.530Z,548.00
2022-09-29T02:08:36.449Z,549.00
2022-09-29T02:09:36.629Z,546.00
2022-09-29T02:10:36.427Z,548.00
2022-09-29T02:11:36.608Z,552.00
2022-09-29T02:12:36.401Z,553.00
2022-09-29T02:13:36.549Z,553.00
2022-09-29T02:14:36.369Z,549.00
2022-09-29T02:15:36.429Z,550.00
2022-09-29T02:16:36.461Z,553.00
2022-09-29T02:17:37.443Z,550.00
2022-09-29T02:18:36.339Z,548.00
2022-09-29T02:19:36.449Z,546.00
2022-09-29T02:20:36.289Z,550.00
2022-09-29T02:21:36.449Z,547.00
2022-09-29T02:22:36.289Z,550.00
2022-09-29T02:23:57.401Z,553.00
2022-09-29T02:24:36.239Z,552.00
2022-09-29T02:25:36.356Z,550.00
2022-09-29T02:26:36.218Z,547.00
2022-09-29T02:27:36.339Z,546.00
2022-09-29T02:28:36.189Z,550.00
2022-09-29T02:29:37.350Z,548.00
2022-09-29T02:30:36.161Z,551.00
2022-09-29T02:31:36.441Z,552.00
2022-09-29T02:32:36.131Z,551.00
2022-09-29T02:33:36.258Z,548.00
2022-09-29T02:34:36.108Z,548.00
2022-09-29T02:35:36.238Z,550.00
2022-09-29T02:36:36.080Z,550.00
2022-09-29T02:37:36.168Z,548.00
2022-09-29T02:38:36.059Z,548.00
2022-09-29T02:39:36.263Z,550.00
2022-09-29T02:40:36.071Z,553.00
2022-09-29T02:41:36.128Z,553.00
2022-09-29T02:42:36.000Z,553.00
2022-09-29T02:43:36.070Z,554.00
2022-09-29T02:44:35.977Z,556.00
2022-09-29T02:45:36.093Z,555.00
2022-09-29T02:46:35.946Z,554.00
2022-09-29T02:47:36.038Z,553.00
2022-09-29T02:48:35.927Z,552.00
2022-09-29T02:49:37.101Z,550.00
2022-09-29T02:50:35.890Z,547.00
2022-09-29T02:51:35.962Z,548.00
2022-09-29T02:52:35.874Z,550.00
2022-09-29T02:53:35.950Z,551.00
2022-09-29T02:54:35.847Z,550.00
2022-09-29T02:55:37.012Z,549.00
2022-09-29T02:56:35.818Z,547.00
2022-09-29T02:57:35.970Z,549.00
2022-09-29T02:58:35.789Z,550.00
2022-09-29T02:59:35.957Z,545.00
2022-09-29T03:00:35.814Z,546.00
2022-09-29T03:01:35.889Z,547.00
2022-09-29T03:02:35.739Z,551.00
2022-09-29T03:03:36.935Z,549.00
2022-09-29T03:04:35.708Z,546.00
2022-09-29T03:05:35.859Z,548.00
2022-09-29T03:06:35.680Z,546.00
2022-09-29T03:07:35.798Z,547.00
2022-09-29T03:08:35.659Z,545.00
2022-09-29T03:09:35.780Z,548.00
2022-09-29T03:10:35.648Z,546.00
2022-09-29T03:11:35.767Z,548.00
2022-09-29T03:12:35.600Z,549.00
2022-09-29T03:13:35.718Z,549.00
2022-09-29T03:14:35.579Z,552.00
2022-09-29T03:15:35.687Z,551.00
2022-09-29T03:16:35.588Z,550.00
2022-09-29T03:17:35.671Z,553.00
2022-09-29T03:18:35.519Z,553.00
2022-09-29T03:19:35.598Z,554.00
2022-09-29T03:20:35.499Z,552.00
2022-09-29T03:21:35.612Z,556.00
2022-09-29T03:22:35.470Z,555.00
2022-09-29T03:23:35.570Z,554.00
2022-09-29T03:24:35.449Z,556.00
2022-09-29T03:25:37.599Z,555.00
2022-09-29T03:26:35.420Z,555.00
2022-09-29T03:27:35.510Z,555.00
2022-09-29T03:28:35.390Z,554.00
2022-09-29T03:29:35.479Z,553.00
2022-09-29T03:30:35.359Z,555.00
2022-09-29T03:31:35.538Z,553.00
2022-09-29T03:32:35.371Z,556.00
2022-09-29T03:33:35.513Z,556.00
2022-09-29T03:34:35.311Z,557.00
2022-09-29T03:35:35.499Z,558.00
2022-09-29T03:36:35.288Z,559.00
2022-09-29T03:37:35.368Z,562.00
2022-09-29T03:38:35.269Z,560.00
2022-09-29T03:39:35.416Z,558.00
2022-09-29T03:40:35.262Z,558.00
2022-09-29T03:41:35.390Z,556.00
2022-09-29T03:42:35.208Z,555.00
2022-09-29T03:43:35.328Z,555.00
2022-09-29T03:44:35.186Z,555.00
2022-09-29T03:45:37.377Z,553.00
2022-09-29T03:46:35.158Z,553.00
2022-09-29T03:47:37.295Z,549.00
2022-09-29T03:48:35.187Z,550.00
2022-09-29T03:49:35.237Z,548.00
2022-09-29T03:50:35.099Z,550.00
2022-09-29T03:51:35.219Z,550.00
2022-09-29T03:52:35.069Z,548.00
2022-09-29T03:53:36.229Z,545.00
2022-09-29T03:54:35.047Z,543.00
2022-09-29T03:55:35.139Z,544.00
2022-09-29T03:56:35.032Z,544.00
2022-09-29T03:57:35.128Z,547.00
2022-09-29T03:58:34.998Z,550.00
2022-09-29T03:59:36.138Z,551.00
2022-09-29T04:00:35.019Z,552.00
2022-09-29T04:01:35.150Z,557.00
2022-09-29T04:02:34.947Z,554.00
2022-09-29T04:03:35.130Z,555.00
2022-09-29T04:04:34.922Z,558.00
2022-09-29T04:05:37.011Z,554.00
2022-09-29T04:06:34.898Z,557.00
2022-09-29T04:07:34.964Z,553.00
2022-09-29T04:08:34.869Z,552.00
2022-09-29T04:09:35.040Z,549.00
2022-09-29T04:10:34.849Z,551.00
2022-09-29T04:11:35.020Z,553.00
2022-09-29T04:12:34.816Z,554.00
2022-09-29T04:13:34.986Z,557.00
2022-09-29T04:14:34.801Z,556.00
2022-09-29T04:15:34.948Z,558.00
2022-09-29T04:16:34.821Z,557.00
2022-09-29T04:17:34.826Z,556.00
2022-09-29T04:18:34.739Z,556.00
2022-09-29T04:19:34.868Z,555.00
2022-09-29T04:20:34.716Z,554.00
2022-09-29T04:21:34.851Z,555.00
2022-09-29T04:22:34.689Z,552.00
2022-09-29T04:23:34.729Z,553.00
2022-09-29T04:24:34.674Z,554.00
2022-09-29T04:25:34.768Z,553.00
2022-09-29T04:26:34.629Z,553.00
2022-09-29T04:27:35.819Z,551.00
2022-09-29T04:28:34.617Z,550.00
2022-09-29T04:29:34.739Z,549.00
2022-09-29T04:30:34.577Z,548.00
2022-09-29T04:31:34.866Z,548.00
2022-09-29T04:32:34.555Z,548.00
2022-09-29T04:33:37.828Z,549.00
2022-09-29T04:34:34.529Z,548.00
2022-09-29T04:35:36.921Z,549.00
2022-09-29T04:36:34.500Z,551.00
2022-09-29T04:37:34.587Z,552.00
2022-09-29T04:38:34.468Z,552.00
2022-09-29T04:39:34.689Z,554.00
2022-09-29T04:40:34.479Z,552.00
2022-09-29T04:41:34.552Z,555.00
2022-09-29T04:42:34.418Z,558.00
2022-09-29T04:43:34.489Z,559.00
2022-09-29T04:44:34.389Z,559.00
2022-09-29T04:45:35.561Z,560.00
2022-09-29T04:46:34.367Z,559.00
2022-09-29T04:47:34.505Z,558.00
2022-09-29T04:48:36.009Z,557.00
2022-09-29T04:49:34.493Z,560.00
2022-09-29T04:50:34.319Z,559.00
2022-09-29T04:51:34.379Z,562.00
2022-09-29T04:52:34.287Z,563.00
2022-09-29T04:53:34.372Z,561.00
2022-09-29T04:54:37.980Z,560.00
2022-09-29T04:55:34.249Z,559.00
2022-09-29T04:56:34.367Z,559.00
2022-09-29T04:57:34.250Z,558.00
2022-09-29T04:58:34.311Z,561.00
2022-09-29T04:59:34.198Z,563.00
2022-09-29T05:00:34.381Z,562.00
2022-09-29T05:01:34.169Z,564.00
2022-09-29T05:02:34.404Z,563.00
2022-09-29T05:03:34.175Z,560.00
2022-09-29T05:04:34.209Z,561.00
2022-09-29T05:05:34.124Z,562.00
2022-09-29T05:06:34.238Z,565.00
2022-09-29T05:07:34.088Z,565.00
2022-09-29T05:08:34.171Z,565.00
2022-09-29T05:09:34.292Z,565.00
2022-09-29T05:10:34.208Z,562.00
2022-09-29T05:11:34.047Z,560.00
2022-09-29T05:12:34.172Z,561.00
2022-09-29T05:13:34.008Z,560.00
2022-09-29T05:14:34.079Z,560.00
2022-09-29T05:15:33.998Z,560.00
2022-09-29T05:16:34.144Z,560.00
2022-09-29T05:17:34.108Z,561.00
2022-09-29T05:18:35.079Z,562.00
2022-09-29T05:19:33.928Z,561.00
2022-09-29T05:20:40.460Z,562.00
2022-09-29T05:21:34.938Z,562.00
2022-09-29T05:22:34.028Z,561.00
2022-09-29T05:23:33.866Z,563.00
2022-09-29T05:24:33.958Z,563.00
2022-09-29T05:25:33.948Z,562.00
2022-09-29T05:26:33.996Z,562.00
2022-09-29T05:27:33.862Z,562.00
2022-09-29T05:28:33.941Z,561.00
2022-09-29T05:29:33.799Z,558.00
2022-09-29T05:30:34.997Z,555.00
2022-09-29T05:31:33.829Z,556.00
2022-09-29T05:32:33.978Z,556.00
2022-09-29T05:33:33.777Z,559.00
2022-09-29T05:34:34.829Z,558.00
2022-09-29T05:35:33.717Z,558.00
2022-09-29T05:36:33.817Z,560.00
2022-09-29T05:37:33.693Z,558.00
2022-09-29T05:38:33.808Z,559.00
2022-09-29T05:39:33.702Z,558.00
2022-09-29T05:40:33.878Z,556.00
2022-09-29T05:41:33.639Z,558.00
2022-09-29T05:42:33.677Z,563.00
2022-09-29T05:43:33.616Z,561.00
2022-09-29T05:44:33.670Z,559.00
2022-09-29T05:45:33.664Z,558.00
2022-09-29T05:46:33.690Z,560.00
2022-09-29T05:47:33.567Z,562.00
2022-09-29T05:48:54.591Z,563.00
2022-09-29T05:49:33.538Z,563.00
2022-09-29T05:50:33.612Z,563.00
2022-09-29T05:51:33.546Z,563.00
2022-09-29T05:52:33.549Z,563.00
2022-09-29T05:53:33.499Z,562.00
2022-09-29T05:54:34.624Z,561.00
2022-09-29T05:55:33.473Z,559.00
2022-09-29T05:56:33.628Z,557.00
2022-09-29T05:57:33.460Z,557.00
2022-09-29T05:58:35.658Z,556.00
2022-09-29T05:59:33.399Z,556.00
2022-09-29T06:00:33.479Z,558.00
2022-09-29T06:01:33.414Z,555.00
2022-09-29T06:02:33.428Z,560.00
2022-09-29T06:03:33.378Z,559.00
2022-09-29T06:04:37.411Z,562.00
2022-09-29T06:05:34.338Z,560.00
2022-09-29T06:06:33.508Z,559.00
2022-09-29T06:07:33.297Z,559.00
2022-09-29T06:08:33.438Z,559.00
2022-09-29T06:09:33.298Z,557.00
2022-09-29T06:10:33.347Z,560.00
2022-09-29T06:11:33.250Z,558.00
2022-09-29T06:12:33.259Z,558.00
2022-09-29T06:13:33.218Z,559.00
2022-09-29T06:14:33.277Z,559.00
2022-09-29T06:15:33.207Z,560.00
2022-09-29T06:16:33.341Z,558.00
2022-09-29T06:17:33.176Z,558.00
2022-09-29T06:18:33.216Z,555.00
2022-09-29T06:19:33.138Z,556.00
2022-09-29T06:20:33.263Z,554.00
2022-09-29T06:21:33.137Z,554.00
2022-09-29T06:22:33.127Z,553.00
2022-09-29T06:23:33.089Z,554.00
2022-09-29T06:24:33.137Z,552.00
2022-09-29T06:25:33.060Z,551.00
2022-09-29T06:26:33.157Z,552.00
2022-09-29T06:27:33.058Z,552.00
2022-09-29T06:28:33.088Z,551.00
2022-09-29T06:29:33.007Z,551.00
2022-09-29T06:30:33.132Z,547.00
2022-09-29T06:31:33.066Z,547.00
2022-09-29T06:32:32.997Z,546.00
2022-09-29T06:33:32.977Z,545.00
2022-09-29T06:34:33.011Z,545.00
2022-09-29T06:35:32.927Z,546.00
2022-09-29T06:36:33.027Z,546.00
2022-09-29T06:37:32.898Z,547.00
2022-09-29T06:38:32.964Z,547.00
2022-09-29T06:39:32.904Z,549.00
2022-09-29T06:40:33.030Z,548.00
2022-09-29T06:41:32.847Z,548.00
2022-09-29T06:42:32.868Z,547.00
2022-09-29T06:43:32.827Z,546.00
2022-09-29T06:44:32.878Z,545.00
2022-09-29T06:45:32.871Z,548.00
2022-09-29T06:46:32.887Z,547.00
2022-09-29T06:47:32.768Z,548.00
2022-09-29T06:48:32.807Z,548.00
2022-09-29T06:49:32.738Z,550.00
2022-09-29T06:50:33.905Z,550.00
2022-09-29T06:51:44.616Z,549.00
2022-09-29T06:52:33.697Z,550.00
2022-09-29T06:53:38.075Z,549.00
2022-09-29T06:54:33.677Z,549.00
2022-09-29T06:55:32.747Z,546.00
2022-09-29T06:56:32.658Z,547.00
2022-09-29T06:57:32.807Z,548.00
2022-09-29T06:58:32.618Z,545.00
2022-09-29T06:59:33.817Z,543.00
2022-09-29T07:00:32.597Z,546.00
2022-09-29T07:01:32.788Z,545.00
2022-09-29T07:02:32.652Z,547.00
2022-09-29T07:03:32.659Z,545.00
2022-09-29T07:04:32.537Z,545.00
2022-09-29T07:05:33.648Z,544.00
2022-09-29T07:06:32.516Z,542.00
2022-09-29T07:07:32.536Z,544.00
2022-09-29T07:08:32.489Z,540.00
2022-09-29T07:09:35.787Z,543.00
2022-09-29T07:10:32.460Z,538.00
2022-09-29T07:11:32.668Z,540.00
2022-09-29T07:12:32.438Z,538.00
2022-09-29T07:13:32.478Z,537.00
2022-09-29T07:14:32.410Z,539.00
2022-09-29T07:15:32.618Z,541.00
2022-09-29T07:16:32.406Z,543.00
2022-09-29T07:17:32.508Z,541.00
2022-09-29T07:18:32.365Z,540.00
2022-09-29T07:19:32.417Z,540.00
2022-09-29T07:20:32.327Z,539.00
2022-09-29T07:21:35.597Z,542.00
2022-09-29T07:22:32.983Z,543.00
2022-09-29T07:23:32.411Z,543.00
2022-09-29T07:24:32.277Z,538.00
2022-09-29T07:25:51.244Z,542.00
2022-09-29T07:26:34.408Z,543.00
2022-09-29T07:27:32.237Z,543.00
2022-09-29T07:28:32.347Z,545.00
2022-09-29T07:29:32.208Z,542.00
2022-09-29T07:30:39.781Z,539.00
2022-09-29T07:31:44.904Z,539.00
2022-09-29T07:32:33.238Z,539.00
2022-09-29T07:33:38.964Z,539.00
2022-09-29T07:34:33.146Z,541.00
2022-09-29T07:35:35.200Z,542.00
2022-09-29T07:36:33.118Z,540.00
2022-09-29T07:37:34.229Z,541.00
2022-09-29T07:38:32.108Z,540.00
2022-09-29T07:39:32.156Z,542.00
2022-09-29T07:40:32.134Z,539.00
2022-09-29T07:41:32.168Z,540.00
2022-09-29T07:42:32.038Z,539.00
2022-09-29T07:43:32.085Z,538.00
2022-09-29T07:44:32.037Z,539.00
2022-09-29T07:45:34.240Z,540.00
2022-09-29T07:46:31.993Z,539.00
2022-09-29T07:47:32.066Z,541.00
2022-09-29T07:48:32.449Z,534.00
2022-09-29T07:49:32.169Z,535.00
2022-09-29T07:50:31.967Z,538.00
2022-09-29T07:51:32.043Z,541.00
2022-09-29T07:52:31.925Z,541.00
2022-09-29T07:53:31.949Z,544.00
2022-09-29T07:54:31.937Z,545.00
2022-09-29T07:55:31.960Z,545.00
2022-09-29T07:56:31.879Z,542.00
2022-09-29T07:57:31.907Z,538.00
2022-09-29T07:58:31.827Z,542.00
2022-09-29T07:59:31.948Z,540.00
2022-09-29T08:00:31.799Z,539.00
2022-09-29T08:01:32.898Z,539.00
2022-09-29T08:02:31.823Z,538.00
2022-09-29T08:03:31.917Z,541.00
2022-09-29T08:04:31.768Z,545.00
2022-09-29T08:05:31.848Z,542.00
2022-09-29T08:06:31.727Z,544.00
2022-09-29T08:07:31.786Z,539.00
2022-09-29T08:08:31.717Z,535.00
2022-09-29T08:09:39.886Z,536.00
2022-09-29T08:10:35.145Z,537.00
2022-09-29T08:11:33.215Z,536.00
2022-09-29T08:12:40.565Z,537.00
2022-09-29T08:13:32.658Z,537.00
2022-09-29T08:14:31.756Z,535.00
2022-09-29T08:15:31.598Z,534.00
2022-09-29T08:16:31.860Z,535.00
2022-09-29T08:17:31.576Z,533.00
2022-09-29T08:18:31.617Z,534.00
2022-09-29T08:19:31.580Z,532.00
2022-09-29T08:20:31.639Z,530.00
2022-09-29T08:21:31.522Z,530.00
2022-09-29T08:22:31.542Z,533.00
2022-09-29T08:23:31.498Z,535.00
2022-09-29T08:24:31.557Z,536.00
2022-09-29T08:25:31.488Z,535.00
2022-09-29T08:26:41.243Z,538.00
2022-09-29T08:27:32.622Z,538.00
2022-09-29T08:28:33.609Z,539.00
2022-09-29T08:29:41.679Z,538.00
2022-09-29T08:30:32.438Z,538.00
2022-09-29T08:31:31.533Z,538.00
2022-09-29T08:32:31.377Z,537.00
2022-09-29T08:33:31.439Z,540.00
2022-09-29T08:34:31.349Z,539.00
2022-09-29T08:35:31.476Z,534.00
2022-09-29T08:36:31.361Z,534.00
2022-09-29T08:37:34.944Z,535.00
2022-09-29T08:38:31.297Z,534.00
2022-09-29T08:39:31.360Z,534.00
2022-09-29T08:40:31.315Z,536.00
2022-09-29T08:41:31.271Z,536.00
2022-09-29T08:42:42.347Z,536.00
2022-09-29T08:43:35.181Z,539.00
2022-09-29T08:44:38.510Z,537.00
2022-09-29T08:45:32.276Z,536.00
2022-09-29T08:46:35.931Z,538.00
2022-09-29T08:47:44.964Z,537.00
2022-09-29T08:48:32.168Z,539.00
2022-09-29T08:49:33.464Z,539.00
2022-09-29T08:50:31.139Z,526.00
2022-09-29T08:51:40.410Z,522.00
2022-09-29T08:52:41.736Z,520.00
2022-09-29T08:53:32.109Z,521.00
2022-09-29T08:54:38.804Z,574.00
2022-09-29T08:55:32.068Z,576.00
2022-09-29T08:56:31.097Z,580.00
2022-09-29T08:57:31.049Z,601.00
2022-09-29T08:58:31.089Z,604.00
2022-09-29T08:59:31.048Z,604.00
2022-09-29T09:00:31.169Z,607.00
2022-09-29T09:01:31.047Z,606.00
2022-09-29T09:02:31.218Z,606.00
2022-09-29T09:03:30.971Z,608.00
2022-09-29T09:04:32.059Z,611.00
2022-09-29T09:05:30.959Z,609.00
2022-09-29T09:06:30.969Z,610.00
2022-09-29T09:07:30.922Z,610.00
2022-09-29T09:08:31.010Z,608.00
2022-09-29T09:09:30.879Z,606.00
2022-09-29T09:10:31.911Z,613.00
2022-09-29T09:11:30.880Z,615.00
2022-09-29T09:12:30.979Z,609.00
2022-09-29T09:13:30.828Z,609.00
2022-09-29T09:14:30.920Z,603.00
2022-09-29T09:15:30.810Z,612.00
2022-09-29T09:16:30.894Z,612.00
2022-09-29T09:17:30.812Z,611.00
2022-09-29T09:18:30.888Z,612.00
2022-09-29T09:19:30.752Z,607.00
2022-09-29T09:20:30.920Z,606.00
2022-09-29T09:21:30.720Z,607.00
2022-09-29T09:22:32.883Z,610.00
2022-09-29T09:23:30.720Z,610.00
2022-09-29T09:24:30.790Z,608.00
2022-09-29T09:25:30.671Z,607.00
2022-09-29T09:26:30.720Z,605.00
2022-09-29T09:27:30.640Z,606.00
2022-09-29T09:28:30.760Z,607.00
2022-09-29T09:29:33.859Z,607.00
2022-09-29T09:30:31.632Z,608.00
2022-09-29T09:31:30.658Z,611.00
2022-09-29T09:32:30.574Z,612.00
2022-09-29T09:33:31.802Z,613.00
2022-09-29T09:34:42.059Z,612.00
2022-09-29T09:35:31.569Z,613.00
2022-09-29T09:36:34.601Z,610.00
2022-09-29T09:37:30.508Z,608.00
2022-09-29T09:38:30.639Z,611.00
2022-09-29T09:39:30.479Z,613.00
2022-09-29T09:40:30.671Z,612.00
2022-09-29T09:41:35.559Z,612.00
2022-09-29T09:42:31.451Z,613.00
2022-09-29T09:43:30.578Z,613.00
2022-09-29T09:44:30.419Z,615.00
2022-09-29T09:45:30.722Z,611.00
2022-09-29T09:46:34.442Z,611.00
2022-09-29T09:47:30.407Z,609.00
2022-09-29T09:48:31.954Z,607.00
2022-09-29T09:49:30.357Z,612.00
2022-09-29T09:50:30.550Z,619.00
2022-09-29T09:51:30.320Z,617.00
2022-09-29T09:52:30.385Z,619.00
2022-09-29T09:53:30.330Z,639.00
2022-09-29T09:54:30.418Z,643.00
2022-09-29T09:55:30.271Z,645.00
2022-09-29T09:56:30.357Z,648.00
2022-09-29T09:57:30.242Z,644.00
2022-09-29T09:58:30.389Z,646.00
2022-09-29T09:59:30.231Z,647.00
2022-09-29T10:00:30.321Z,656.00
2022-09-29T10:01:30.315Z,679.00
2022-09-29T10:02:30.297Z,680.00
2022-09-29T10:03:30.178Z,745.00
2022-09-29T10:04:30.291Z,673.00
2022-09-29T10:05:30.160Z,715.00
2022-09-29T10:06:30.231Z,687.00
2022-09-29T10:07:30.110Z,530.00
2022-09-29T10:08:30.265Z,515.00
2022-09-29T10:09:30.145Z,513.00
2022-09-29T10:10:30.203Z,516.00
2022-09-29T10:11:30.101Z,527.00
2022-09-29T10:12:30.148Z,525.00
2022-09-29T10:13:30.040Z,521.00
2022-09-29T10:14:30.170Z,521.00
2022-09-29T10:15:30.012Z,520.00
2022-09-29T10:16:30.163Z,617.00
2022-09-29T10:17:30.020Z,635.00
2022-09-29T10:18:30.042Z,661.00
2022-09-29T10:19:29.963Z,660.00
2022-09-29T10:20:30.081Z,661.00
2022-09-29T10:21:29.931Z,662.00
2022-09-29T10:22:30.011Z,661.00
2022-09-29T10:23:29.930Z,661.00
2022-09-29T10:24:30.051Z,665.00
2022-09-29T10:25:29.881Z,668.00
2022-09-29T10:26:29.991Z,678.00
2022-09-29T10:27:29.851Z,707.00
2022-09-29T10:28:29.921Z,687.00
2022-09-29T10:29:29.862Z,519.00
2022-09-29T10:30:30.053Z,520.00
2022-09-29T10:31:29.804Z,522.00
2022-09-29T10:32:29.891Z,521.00
2022-09-29T10:33:29.780Z,499.00
2022-09-29T10:34:29.921Z,479.00
2022-09-29T10:35:29.781Z,474.00
2022-09-29T10:36:29.961Z,475.00
2022-09-29T10:37:29.730Z,474.00
2022-09-29T10:38:29.795Z,476.00
2022-09-29T10:39:29.700Z,475.00
2022-09-29T10:40:29.830Z,474.00
2022-09-29T10:41:29.693Z,476.00
2022-09-29T10:42:29.762Z,479.00
2022-09-29T10:43:29.666Z,479.00
2022-09-29T10:44:30.841Z,476.00
2022-09-29T10:45:29.632Z,479.00
2022-09-29T10:46:30.782Z,490.00
2022-09-29T10:47:29.613Z,482.00
2022-09-29T10:48:29.673Z,482.00
2022-09-29T10:49:29.579Z,480.00
2022-09-29T10:50:34.926Z,481.00
2022-09-29T10:51:30.551Z,475.00
2022-09-29T10:52:29.649Z,476.00
2022-09-29T10:53:29.544Z,474.00
2022-09-29T10:54:29.682Z,478.00
2022-09-29T10:55:29.492Z,478.00
2022-09-29T10:56:29.643Z,477.00
2022-09-29T10:57:29.481Z,472.00
2022-09-29T10:58:44.735Z,475.00
2022-09-29T10:59:30.463Z,478.00
2022-09-29T11:00:30.595Z,480.00
2022-09-29T11:01:29.485Z,481.00
2022-09-29T11:02:29.569Z,481.00
2022-09-29T11:03:29.374Z,478.00
2022-09-29T11:04:29.452Z,471.00
2022-09-29T11:05:29.384Z,469.00
2022-09-29T11:06:29.394Z,468.00
2022-09-29T11:07:29.403Z,472.00
2022-09-29T11:08:29.504Z,472.00
2022-09-29T11:09:29.667Z,474.00
2022-09-29T11:10:32.479Z,474.00
2022-09-29T11:11:32.346Z,473.00
2022-09-29T11:12:30.513Z,474.00
2022-09-29T11:13:29.536Z,473.00
2022-09-29T11:14:29.564Z,475.00
2022-09-29T11:15:30.953Z,475.00
2022-09-29T11:16:29.367Z,474.00
2022-09-29T11:17:29.442Z,472.00
2022-09-29T11:18:29.355Z,474.00
2022-09-29T11:19:29.194Z,473.00
2022-09-29T11:20:29.344Z,473.00
2022-09-29T11:21:29.164Z,472.00
2022-09-29T11:22:29.174Z,470.00
2022-09-29T11:23:29.135Z,472.00
2022-09-29T11:24:29.273Z,473.00
2022-09-29T11:25:29.089Z,474.00
2022-09-29T11:26:29.145Z,474.00
2022-09-29T11:27:29.055Z,474.00
2022-09-29T11:28:29.185Z,474.00
2022-09-29T11:29:29.067Z,473.00
2022-09-29T11:30:31.256Z,476.00
2022-09-29T11:31:29.006Z,474.00
2022-09-29T11:32:29.045Z,472.00
2022-09-29T11:33:28.976Z,470.00
2022-09-29T11:34:29.092Z,472.00
2022-09-29T11:35:28.975Z,471.00
2022-09-29T11:36:29.015Z,471.00
2022-09-29T11:37:28.914Z,472.00
2022-09-29T11:38:29.056Z,469.00
2022-09-29T11:39:28.885Z,472.00
2022-09-29T11:40:29.098Z,472.00
2022-09-29T11:41:28.896Z,474.00
2022-09-29T11:42:28.924Z,471.00
2022-09-29T11:43:28.835Z,471.00
2022-09-29T11:44:28.965Z,471.00
2022-09-29T11:45:28.816Z,473.00
2022-09-29T11:46:28.899Z,471.00
2022-09-29T11:47:28.815Z,471.00
2022-09-29T11:48:30.587Z,469.00
2022-09-29T11:49:28.755Z,478.00
2022-09-29T11:50:28.987Z,474.00
2022-09-29T11:51:28.735Z,472.00
2022-09-29T11:52:28.826Z,471.00
2022-09-29T11:53:28.748Z,474.00
2022-09-29T11:54:49.837Z,472.00
2022-09-29T11:55:28.687Z,471.00
2022-09-29T11:56:28.668Z,466.00
2022-09-29T11:57:28.737Z,467.00
2022-09-29T11:58:28.636Z,468.00
2022-09-29T11:59:28.725Z,469.00
2022-09-29T12:00:28.618Z,467.00
2022-09-29T12:01:28.714Z,466.00
2022-09-29T12:02:28.679Z,469.00
2022-09-29T12:03:28.767Z,468.00
2022-09-29T12:04:28.559Z,471.00
2022-09-29T12:05:28.628Z,469.00
2022-09-29T12:06:28.527Z,470.00
2022-09-29T12:07:28.618Z,468.00
2022-09-29T12:08:28.507Z,466.00
2022-09-29T12:09:28.672Z,464.00
2022-09-29T12:10:28.488Z,464.00
2022-09-29T12:12:29.459Z,470.00
2022-09-29T12:13:28.629Z,469.00
2022-09-29T12:14:28.428Z,469.00
2022-09-29T12:15:28.458Z,470.00
2022-09-29T12:16:28.422Z,475.00
2022-09-29T12:17:28.547Z,473.00
2022-09-29T12:18:28.378Z,472.00
2022-09-29T12:19:28.539Z,470.00
2022-09-29T12:20:28.356Z,469.00
2022-09-29T12:21:28.481Z,468.00
2022-09-29T12:22:29.435Z,470.00
2022-09-29T12:23:28.450Z,473.00
2022-09-29T12:24:28.299Z,473.00
2022-09-29T12:25:28.438Z,473.00
2022-09-29T12:26:28.269Z,471.00
2022-09-29T12:27:28.368Z,470.00
2022-09-29T12:28:28.240Z,469.00
2022-09-29T12:29:28.352Z,467.00